createdAt,value
2023-03-11T00:00:48.019Z,14.38
2023-03-11T00:05:46.332Z,14.56
2023-03-11T00:10:45.565Z,14.74
2023-03-11T00:15:45.434Z,14.51
2023-03-11T00:20:45.534Z,14.75
2023-03-11T00:25:44.652Z,15.00
2023-03-11T00:30:43.084Z,15.00
2023-03-11T00:35:41.386Z,15.29
2023-03-11T00:40:39.429Z,15.20
2023-03-11T00:45:36.394Z,15.19
2023-03-11T00:50:35.975Z,14.83
2023-03-11T00:55:35.505Z,14.63
2023-03-11T01:00:37.204Z,14.75
2023-03-11T01:05:34.718Z,14.58
2023-03-11T01:10:34.873Z,14.56
2023-03-11T01:15:34.482Z,14.70
2023-03-11T01:20:32.080Z,14.49
2023-03-11T01:25:29.602Z,14.83
2023-03-11T01:30:29.361Z,14.89
2023-03-11T01:35:28.032Z,14.93
2023-03-11T01:40:29.614Z,14.72
2023-03-11T01:45:41.187Z,14.35
2023-03-11T01:50:42.969Z,14.49
2023-03-11T01:55:41.021Z,14.19
2023-03-11T02:00:38.725Z,14.35
2023-03-11T02:05:36.140Z,14.12
2023-03-11T02:10:33.226Z,14.22
2023-03-11T02:15:30.845Z,14.25
2023-03-11T02:20:38.704Z,14.19
2023-03-11T02:25:47.021Z,14.69
2023-03-11T02:30:46.785Z,14.49
2023-03-11T02:35:44.479Z,14.40
2023-03-11T02:40:51.104Z,14.67
2023-03-11T02:45:51.060Z,14.16
2023-03-11T02:50:48.349Z,14.11
2023-03-11T02:55:47.255Z,13.97
2023-03-11T03:00:44.291Z,14.28
2023-03-11T03:05:44.864Z,14.14
2023-03-11T03:10:42.134Z,14.13
2023-03-11T03:15:39.091Z,14.13
2023-03-11T03:20:36.742Z,14.16
2023-03-11T03:25:35.072Z,14.53
2023-03-11T03:30:36.691Z,14.26
2023-03-11T03:35:34.206Z,14.81
2023-03-11T03:41:01.154Z,14.77
2023-03-11T03:46:00.364Z,14.91
2023-03-11T03:51:06.119Z,14.67
2023-03-11T03:56:05.635Z,14.92
2023-03-11T04:01:04.802Z,14.95
2023-03-11T04:06:07.399Z,14.90
2023-03-11T04:11:05.412Z,15.13
2023-03-11T04:16:06.192Z,14.69
2023-03-11T04:21:05.651Z,15.22
2023-03-11T04:26:03.419Z,15.36
2023-03-11T04:31:01.409Z,15.20
2023-03-11T04:35:59.926Z,15.46
2023-03-11T04:41:00.236Z,15.42
2023-03-11T04:45:57.826Z,15.05
2023-03-11T04:50:55.967Z,15.00
2023-03-11T04:55:54.288Z,14.89
2023-03-11T05:00:52.288Z,15.20
2023-03-11T05:05:49.529Z,15.20
2023-03-11T05:10:52.659Z,15.00
2023-03-11T05:15:50.739Z,14.91
2023-03-11T05:20:47.921Z,15.14
2023-03-11T05:25:46.211Z,15.04
2023-03-11T05:30:44.025Z,14.64
2023-03-11T05:35:42.284Z,14.91
2023-03-11T05:40:40.082Z,14.83
2023-03-11T05:45:37.275Z,14.57
2023-03-11T05:50:35.243Z,14.96
2023-03-11T05:55:33.545Z,14.88
2023-03-11T06:00:36.159Z,14.60
2023-03-11T06:05:35.712Z,14.46
2023-03-11T06:10:32.940Z,14.72
2023-03-11T06:15:34.823Z,14.10
2023-03-11T06:20:38.166Z,14.63
2023-03-11T06:25:35.697Z,14.80
2023-03-11T06:30:33.218Z,14.81
2023-03-11T06:35:39.492Z,14.14
2023-03-11T06:40:39.118Z,14.87
2023-03-11T06:45:38.954Z,14.30
2023-03-11T06:50:38.833Z,14.40
2023-03-11T06:55:43.425Z,15.08
2023-03-11T07:00:42.678Z,14.57
2023-03-11T07:05:53.498Z,15.29
2023-03-11T07:11:04.994Z,15.10
2023-03-11T07:16:06.426Z,15.63
2023-03-11T07:21:08.135Z,16.16
2023-03-11T07:26:08.985Z,16.11
2023-03-11T07:31:35.641Z,16.64
2023-03-11T07:36:41.503Z,16.51
2023-03-11T07:41:39.224Z,17.10
2023-03-11T07:46:36.161Z,17.94
2023-03-11T07:51:35.860Z,18.76
2023-03-11T07:56:34.868Z,19.09
2023-03-11T08:01:35.687Z,19.79
2023-03-11T08:06:34.278Z,20.19
2023-03-11T08:11:32.228Z,21.13
2023-03-11T08:16:46.948Z,20.81
2023-03-11T08:21:47.534Z,21.48
2023-03-11T08:27:21.006Z,20.91
2023-03-11T08:32:37.832Z,20.69
2023-03-11T08:37:42.874Z,20.82
2023-03-11T08:42:50.394Z,20.82
2023-03-11T08:47:51.597Z,20.03
2023-03-11T08:52:49.795Z,20.69
2023-03-11T08:57:48.039Z,20.01
2023-03-11T09:02:50.710Z,19.88
2023-03-11T09:07:51.124Z,20.17
2023-03-11T09:12:47.906Z,20.51
2023-03-11T09:17:47.820Z,21.09
2023-03-11T09:22:46.014Z,21.04
2023-03-11T09:27:55.233Z,21.25
2023-03-11T09:32:52.549Z,21.24
2023-03-11T09:37:49.942Z,21.54
2023-03-11T09:42:56.253Z,21.53
2023-03-11T09:48:10.035Z,21.56
2023-03-11T09:53:23.633Z,21.92
2023-03-11T09:58:36.294Z,22.27
2023-03-11T10:03:34.843Z,22.86
2023-03-11T10:08:38.122Z,22.64
2023-03-11T10:13:40.352Z,23.30
2023-03-11T10:18:49.250Z,23.59
2023-03-11T10:24:01.572Z,23.93
2023-03-11T10:29:07.840Z,23.73
2023-03-11T10:34:15.064Z,24.04
2023-03-11T10:39:12.928Z,23.33
2023-03-11T10:44:15.454Z,23.19
2023-03-11T10:49:14.448Z,23.00
2023-03-11T10:54:22.850Z,23.06
2023-03-11T10:59:25.213Z,22.71
2023-03-11T11:04:39.420Z,22.37
2023-03-11T11:09:36.414Z,22.48
2023-03-11T11:14:49.555Z,22.10
2023-03-11T11:19:48.113Z,22.26
2023-03-11T11:24:46.454Z,22.34
2023-03-11T11:29:44.395Z,21.97
2023-03-11T11:34:42.315Z,22.26
2023-03-11T11:39:50.802Z,21.59
2023-03-11T11:44:52.066Z,21.83
2023-03-11T11:49:54.854Z,21.27
2023-03-11T11:54:58.064Z,20.86
2023-03-11T11:59:57.601Z,20.69
2023-03-11T12:05:02.959Z,20.32
2023-03-11T12:10:12.955Z,20.43
2023-03-11T12:15:24.729Z,19.92
2023-03-11T12:20:33.126Z,20.33
2023-03-11T12:25:51.593Z,20.68
2023-03-11T12:30:55.158Z,20.89
2023-03-11T12:35:56.951Z,20.90
2023-03-11T12:41:00.147Z,20.88
2023-03-11T12:45:59.270Z,21.20
2023-03-11T12:50:58.346Z,20.95
2023-03-11T12:56:03.076Z,21.42
2023-03-11T13:02:01.631Z,21.44
2023-03-11T13:07:34.434Z,21.35
2023-03-11T13:12:50.243Z,20.78
2023-03-11T13:18:00.333Z,21.01
2023-03-11T13:23:26.333Z,20.80
2023-03-11T13:28:57.084Z,20.69
2023-03-11T13:33:56.125Z,20.31
2023-03-11T13:39:30.124Z,20.42
2023-03-11T13:44:31.091Z,19.83
2023-03-11T13:49:37.206Z,20.02
2023-03-11T13:54:41.856Z,20.10
2023-03-11T13:59:38.839Z,19.46
2023-03-11T14:04:37.199Z,19.53
2023-03-11T14:09:34.062Z,19.09
2023-03-11T14:14:43.011Z,18.95
2023-03-11T14:19:39.957Z,19.23
2023-03-11T14:24:38.404Z,18.78
2023-03-11T14:29:37.879Z,18.73
2023-03-11T14:34:40.685Z,18.62
2023-03-11T14:39:38.663Z,18.35
2023-03-11T14:44:40.871Z,18.47
2023-03-11T14:49:39.507Z,17.95
2023-03-11T14:54:37.512Z,18.39
2023-03-11T14:59:37.733Z,18.03
2023-03-11T15:04:39.383Z,17.64
2023-03-11T15:09:40.298Z,18.14
2023-03-11T15:14:51.086Z,18.29
2023-03-11T15:19:48.531Z,18.24
2023-03-11T15:24:50.678Z,17.82
2023-03-11T15:29:52.240Z,17.60
2023-03-11T15:35:02.416Z,17.97
2023-03-11T15:40:12.435Z,17.90
2023-03-11T15:45:15.149Z,17.82
2023-03-11T15:50:24.750Z,17.46
2023-03-11T15:55:24.779Z,17.60
2023-03-11T16:00:24.692Z,17.39
2023-03-11T16:05:23.659Z,16.90
2023-03-11T16:10:23.549Z,16.83
2023-03-11T16:15:27.801Z,16.75
2023-03-11T16:20:27.885Z,16.79
2023-03-11T16:25:30.699Z,16.61
2023-03-11T16:30:30.826Z,15.95
2023-03-11T16:35:28.582Z,15.71
2023-03-11T16:40:31.587Z,15.60
2023-03-11T16:45:32.730Z,15.25
2023-03-11T16:50:39.679Z,15.82
2023-03-11T16:55:37.536Z,14.81
2023-03-11T17:00:38.711Z,15.55
2023-03-11T17:05:36.050Z,15.22
2023-03-11T17:10:38.788Z,15.03
2023-03-11T17:15:37.929Z,14.62
2023-03-11T17:20:38.454Z,14.81
2023-03-11T17:25:39.041Z,14.70
2023-03-11T17:30:43.021Z,14.70
2023-03-11T17:35:40.637Z,15.02
2023-03-11T17:40:40.096Z,14.60
2023-03-11T17:45:40.009Z,14.37
2023-03-11T17:50:38.449Z,15.17
2023-03-11T17:55:45.962Z,14.11
2023-03-11T18:00:43.959Z,14.63
2023-03-11T18:05:42.996Z,14.60
2023-03-11T18:10:40.951Z,14.40
2023-03-11T18:15:43.196Z,13.97
2023-03-11T18:20:50.717Z,14.05
2023-03-11T18:25:51.939Z,13.64
2023-03-11T18:30:49.204Z,13.50
2023-03-11T18:35:47.511Z,13.31
2023-03-11T18:40:47.010Z,13.15
2023-03-11T18:45:49.992Z,12.99
2023-03-11T18:50:52.086Z,12.71
2023-03-11T18:55:49.075Z,12.86
2023-03-11T19:00:46.616Z,12.91
2023-03-11T19:05:48.483Z,12.94
2023-03-11T19:10:47.712Z,12.82
2023-03-11T19:15:45.268Z,12.64
2023-03-11T19:20:44.113Z,12.62
2023-03-11T19:25:45.791Z,12.53
2023-03-11T19:30:55.583Z,11.66
2023-03-11T19:36:07.852Z,11.98
2023-03-11T19:41:07.392Z,12.00
2023-03-11T19:46:10.093Z,11.69
2023-03-11T19:51:07.256Z,11.53
2023-03-11T19:56:08.229Z,11.41
2023-03-11T20:01:05.785Z,11.23
2023-03-11T20:06:06.738Z,11.08
2023-03-11T20:11:04.958Z,11.26
2023-03-11T20:16:06.614Z,10.96
2023-03-11T20:21:07.522Z,10.88
2023-03-11T20:26:06.249Z,10.58
2023-03-11T20:31:09.643Z,10.89
2023-03-11T20:36:08.688Z,11.14
2023-03-11T20:41:07.485Z,10.58
2023-03-11T20:46:05.920Z,11.02
2023-03-11T20:51:05.875Z,10.86
2023-03-11T20:56:06.816Z,10.52
2023-03-11T21:01:11.583Z,10.66
2023-03-11T21:06:17.233Z,10.39
2023-03-11T21:11:14.398Z,10.69
2023-03-11T21:16:11.824Z,10.61
2023-03-11T21:21:11.018Z,10.24
2023-03-11T21:26:08.712Z,10.42
2023-03-11T21:31:08.184Z,10.26
2023-03-11T21:36:07.140Z,9.79
2023-03-11T21:41:06.206Z,10.10
2023-03-11T21:46:04.715Z,10.04
2023-03-11T21:51:02.375Z,10.20
2023-03-11T21:55:59.635Z,10.06
2023-03-11T22:00:56.688Z,10.07
2023-03-11T22:05:58.357Z,9.68
2023-03-11T22:10:55.663Z,9.65
2023-03-11T22:15:52.621Z,9.89
2023-03-11T22:20:49.466Z,9.82
2023-03-11T22:25:49.480Z,9.66
2023-03-11T22:30:46.424Z,9.71
2023-03-11T22:35:49.823Z,9.67
2023-03-11T22:40:47.675Z,9.25
2023-03-11T22:45:44.972Z,9.10
2023-03-11T22:50:43.710Z,9.28
2023-03-11T22:55:41.039Z,9.23
2023-03-11T23:00:39.078Z,9.32
2023-03-11T23:05:41.170Z,9.61
2023-03-11T23:10:41.436Z,9.44
2023-03-11T23:15:40.935Z,9.24
2023-03-11T23:20:40.036Z,9.15
2023-03-11T23:25:38.392Z,9.06
2023-03-11T23:30:35.359Z,9.43
2023-03-11T23:35:33.162Z,9.06
2023-03-11T23:40:30.033Z,9.41
2023-03-11T23:45:26.915Z,9.07
2023-03-11T23:50:23.784Z,9.12
2023-03-11T23:55:21.360Z,9.37
